createdAt,value
2023-01-29T00:01:15.728Z,99743.86
2023-01-29T00:06:17.911Z,99747.51
2023-01-29T00:11:20.592Z,99747.42
2023-01-29T00:16:24.781Z,99748.86
2023-01-29T00:21:26.562Z,99755.20
2023-01-29T00:26:28.664Z,99758.98
2023-01-29T00:31:31.058Z,99761.27
2023-01-29T00:36:32.883Z,99763.55
2023-01-29T00:41:54.161Z,99764.51
2023-01-29T00:46:56.048Z,99765.92
2023-01-29T00:52:30.794Z,99762.14
2023-01-29T00:57:34.857Z,99772.02
2023-01-29T01:02:55.124Z,99781.27
2023-01-29T01:07:58.319Z,99784.35
2023-01-29T01:13:06.572Z,99787.63
2023-01-29T01:18:08.288Z,99787.64
2023-01-29T01:23:10.043Z,99773.91
2023-01-29T01:28:12.835Z,99764.91
2023-01-29T01:33:14.585Z,99772.17
2023-01-29T01:38:17.155Z,99764.53
2023-01-29T01:43:18.840Z,99762.98
2023-01-29T01:48:23.724Z,99757.77
2023-01-29T01:53:34.589Z,99757.18
2023-01-29T01:58:42.635Z,99755.37
2023-01-29T02:04:28.899Z,99742.77
2023-01-29T02:09:36.503Z,99741.08
2023-01-29T02:14:41.299Z,99742.06
2023-01-29T02:20:12.024Z,99739.92
2023-01-29T02:25:23.380Z,99734.84
2023-01-29T02:30:53.833Z,99723.64
2023-01-29T02:36:24.583Z,99715.73
2023-01-29T02:41:32.157Z,99708.60
2023-01-29T02:46:53.475Z,99718.33
2023-01-29T02:52:07.493Z,99730.52
2023-01-29T02:57:22.727Z,99732.02
2023-01-29T03:02:38.151Z,99740.69
2023-01-29T03:07:46.460Z,99738.75
2023-01-29T03:13:05.109Z,99733.33
2023-01-29T03:18:10.567Z,99733.85
2023-01-29T03:23:23.835Z,99743.37
2023-01-29T03:28:46.889Z,99748.45
2023-01-29T03:33:52.096Z,99741.06
2023-01-29T03:38:53.961Z,99736.91
2023-01-29T03:44:17.664Z,99733.98
2023-01-29T03:49:28.480Z,99729.80
2023-01-29T03:54:46.964Z,99724.08
2023-01-29T04:00:07.906Z,99719.39
2023-01-29T04:05:23.065Z,99712.23
2023-01-29T04:10:44.315Z,99713.92
2023-01-29T04:15:59.938Z,99710.53
2023-01-29T04:21:32.082Z,99706.45
2023-01-29T04:26:52.932Z,99693.36
2023-01-29T04:32:13.704Z,99681.81
2023-01-29T04:37:20.727Z,99669.37
2023-01-29T04:42:49.476Z,99655.95
2023-01-29T04:48:18.613Z,99656.02
2023-01-29T04:53:25.421Z,99649.10
2023-01-29T04:58:44.818Z,99640.98
2023-01-29T05:03:55.340Z,99636.49
2023-01-29T05:08:57.902Z,99641.42
2023-01-29T05:14:04.410Z,99649.46
2023-01-29T05:19:06.081Z,99648.90
2023-01-29T05:24:21.335Z,99651.14
2023-01-29T05:29:24.117Z,99657.49
2023-01-29T05:34:26.320Z,99655.23
2023-01-29T05:39:28.034Z,99655.70
2023-01-29T05:44:29.761Z,99650.35
2023-01-29T05:49:31.394Z,99653.89
2023-01-29T05:54:32.997Z,99654.37
2023-01-29T05:59:34.767Z,99655.33
2023-01-29T06:04:36.511Z,99660.39
2023-01-29T06:09:38.317Z,99666.58
2023-01-29T06:14:40.003Z,99659.84
2023-01-29T06:19:41.751Z,99668.55
2023-01-29T06:24:43.830Z,99662.30
2023-01-29T06:29:45.679Z,99670.34
2023-01-29T06:34:49.604Z,99684.25
2023-01-29T06:39:51.808Z,99688.63
2023-01-29T06:44:56.859Z,99689.70
2023-01-29T06:49:58.585Z,99692.95
2023-01-29T06:55:00.234Z,99699.94
2023-01-29T07:00:02.017Z,99699.42
2023-01-29T07:05:04.061Z,99697.65
2023-01-29T07:10:06.556Z,99698.50
2023-01-29T07:15:08.839Z,99706.05
2023-01-29T07:20:11.389Z,99709.13
2023-01-29T07:25:14.604Z,99707.55
2023-01-29T07:30:17.688Z,99706.95
2023-01-29T07:35:19.706Z,99705.04
2023-01-29T07:40:21.564Z,99706.06
2023-01-29T07:45:23.278Z,99710.66
2023-01-29T07:50:26.625Z,99716.40
2023-01-29T07:55:28.513Z,99716.41
2023-01-29T08:00:31.606Z,99728.21
2023-01-29T08:05:34.042Z,99731.34
2023-01-29T08:10:36.748Z,99738.61
2023-01-29T08:15:39.353Z,99737.15
2023-01-29T08:20:41.369Z,99736.77
2023-01-29T08:25:43.426Z,99738.34
2023-01-29T08:30:45.317Z,99749.23
2023-01-29T08:35:51.140Z,99762.21
2023-01-29T08:40:52.821Z,99759.31
2023-01-29T08:45:54.468Z,99754.70
2023-01-29T08:51:01.316Z,99758.94
2023-01-29T08:56:03.086Z,99760.96
2023-01-29T09:01:09.938Z,99750.60
2023-01-29T09:06:13.675Z,99739.77
2023-01-29T09:11:15.603Z,99723.69
2023-01-29T09:16:17.535Z,99718.25
2023-01-29T09:21:19.917Z,99712.92
2023-01-29T09:26:21.681Z,99714.02
2023-01-29T09:31:23.838Z,99712.98
2023-01-29T09:36:25.624Z,99727.80
2023-01-29T09:41:53.081Z,99728.77
2023-01-29T09:46:56.563Z,99726.26
2023-01-29T09:52:05.319Z,99722.77
2023-01-29T09:57:15.253Z,99724.83
2023-01-29T10:02:43.015Z,99713.55
2023-01-29T10:08:21.032Z,99698.11
2023-01-29T10:13:46.378Z,99685.98
2023-01-29T10:19:19.258Z,99679.66
2023-01-29T10:24:34.059Z,99657.39
2023-01-29T10:29:35.932Z,99641.34
2023-01-29T10:34:56.663Z,99624.79
2023-01-29T10:40:00.776Z,99613.45
2023-01-29T10:45:22.780Z,99602.92
2023-01-29T10:50:47.414Z,99598.98
2023-01-29T10:56:22.359Z,99589.78
2023-01-29T11:01:26.732Z,99585.58
2023-01-29T11:06:31.463Z,99574.45
2023-01-29T11:12:04.571Z,99563.20
2023-01-29T11:17:06.274Z,99550.27
2023-01-29T11:22:34.065Z,99537.14
2023-01-29T11:27:46.444Z,99532.48
2023-01-29T11:33:07.439Z,99527.80
2023-01-29T11:38:29.585Z,99518.45
2023-01-29T11:43:34.300Z,99508.10
2023-01-29T11:48:52.250Z,99512.11
2023-01-29T11:54:01.831Z,99511.29
2023-01-29T11:59:05.240Z,99509.67
2023-01-29T12:04:21.736Z,99506.90
2023-01-29T12:09:29.581Z,99503.98
2023-01-29T12:14:34.395Z,99501.00
2023-01-29T12:19:49.004Z,99499.48
2023-01-29T12:25:01.971Z,99491.23
2023-01-29T12:30:27.274Z,99480.63
2023-01-29T12:35:38.232Z,99474.69
2023-01-29T12:40:45.160Z,99469.86
2023-01-29T12:45:52.295Z,99470.27
2023-01-29T12:51:08.314Z,99467.67
2023-01-29T12:56:16.478Z,99465.38
2023-01-29T13:01:28.782Z,99458.23
2023-01-29T13:06:43.655Z,99451.60
2023-01-29T13:12:07.251Z,99440.92
2023-01-29T13:17:33.073Z,99427.33
2023-01-29T13:22:39.516Z,99435.23
2023-01-29T13:27:43.399Z,99435.64
2023-01-29T13:32:52.683Z,99429.45
2023-01-29T13:37:55.500Z,99419.42
2023-01-29T13:43:00.415Z,99411.34
2023-01-29T13:48:21.644Z,99410.00
2023-01-29T13:53:27.148Z,99401.77
2023-01-29T13:58:31.744Z,99388.86
2023-01-29T14:04:03.418Z,99381.48
2023-01-29T14:09:24.906Z,99387.71
2023-01-29T14:14:48.574Z,99384.92
2023-01-29T14:20:12.032Z,99386.91
2023-01-29T14:25:19.521Z,99381.52
2023-01-29T14:30:24.083Z,99380.69
2023-01-29T14:35:30.485Z,99388.38
2023-01-29T14:40:33.095Z,99390.58
2023-01-29T14:45:42.040Z,99386.63
2023-01-29T14:50:48.713Z,99379.17
2023-01-29T14:56:01.673Z,99383.68
2023-01-29T15:01:07.637Z,99391.79
2023-01-29T15:06:16.240Z,99396.57
2023-01-29T15:11:36.405Z,99397.32
2023-01-29T15:17:29.751Z,99386.50
2023-01-29T15:22:32.942Z,99375.98
2023-01-29T15:27:35.195Z,99366.75
2023-01-29T15:32:41.194Z,99372.25
2023-01-29T15:37:43.745Z,99383.60
2023-01-29T15:42:48.701Z,99368.05
2023-01-29T15:47:51.662Z,99366.40
2023-01-29T15:52:55.181Z,99356.20
2023-01-29T15:57:57.690Z,99346.52
2023-01-29T16:03:04.182Z,99344.55
2023-01-29T16:08:07.695Z,99338.77
2023-01-29T16:13:20.768Z,99345.36
2023-01-29T16:18:36.299Z,99337.98
2023-01-29T16:23:49.009Z,99331.19
2023-01-29T16:28:51.343Z,99321.81
2023-01-29T16:33:53.588Z,99319.38
2023-01-29T16:39:02.542Z,99319.35
2023-01-29T16:44:24.167Z,99327.98
2023-01-29T16:49:26.141Z,99334.31
2023-01-29T16:54:27.827Z,99329.13
2023-01-29T16:59:35.532Z,99328.46
2023-01-29T17:04:41.880Z,99329.64
2023-01-29T17:09:43.633Z,99328.48
2023-01-29T17:14:57.304Z,99330.46
2023-01-29T17:20:10.804Z,99327.50
2023-01-29T17:25:18.650Z,99319.80
2023-01-29T17:30:29.973Z,99311.98
2023-01-29T17:35:31.684Z,99309.00
2023-01-29T17:40:42.228Z,99303.24
2023-01-29T17:45:44.055Z,99297.73
2023-01-29T17:50:49.230Z,99286.73
2023-01-29T17:55:51.631Z,99278.91
2023-01-29T18:00:53.996Z,99277.41
2023-01-29T18:05:55.868Z,99279.35
2023-01-29T18:10:57.845Z,99284.46
2023-01-29T18:15:59.744Z,99286.55
2023-01-29T18:21:01.602Z,99274.74
2023-01-29T18:26:03.688Z,99271.23
2023-01-29T18:31:05.872Z,99261.30
2023-01-29T18:36:08.534Z,99257.13
2023-01-29T18:41:11.260Z,99259.02
2023-01-29T18:46:13.282Z,99264.69
2023-01-29T18:51:15.291Z,99269.35
2023-01-29T18:56:18.905Z,99268.38
2023-01-29T19:01:20.959Z,99267.05
2023-01-29T19:06:22.803Z,99259.09
2023-01-29T19:11:25.969Z,99250.13
2023-01-29T19:16:27.878Z,99244.92
2023-01-29T19:21:30.685Z,99244.48
2023-01-29T19:26:34.200Z,99235.33
2023-01-29T19:31:36.756Z,99229.79
2023-01-29T19:36:38.770Z,99233.42
2023-01-29T19:41:41.985Z,99238.59
2023-01-29T19:46:43.931Z,99242.08
2023-01-29T19:51:45.659Z,99244.45
2023-01-29T19:56:47.508Z,99233.23
2023-01-29T20:01:49.522Z,99228.55
2023-01-29T20:06:51.345Z,99224.34
2023-01-29T20:11:53.158Z,99224.77
2023-01-29T20:16:55.108Z,99227.73
2023-01-29T20:21:56.889Z,99220.50
2023-01-29T20:26:58.956Z,99218.08
2023-01-29T20:32:02.271Z,99213.23
2023-01-29T20:37:04.151Z,99221.15
2023-01-29T20:42:06.085Z,99220.33
2023-01-29T20:47:08.694Z,99211.23
2023-01-29T20:52:11.419Z,99206.74
2023-01-29T20:57:13.516Z,99192.98
2023-01-29T21:02:15.312Z,99176.17
2023-01-29T21:07:18.203Z,99166.88
2023-01-29T21:12:20.003Z,99156.21
2023-01-29T21:17:21.719Z,99149.77
2023-01-29T21:22:24.165Z,99140.36
2023-01-29T21:27:26.023Z,99133.11
2023-01-29T21:32:30.681Z,99129.62
2023-01-29T21:37:36.925Z,99122.07
2023-01-29T21:42:57.448Z,99114.84
2023-01-29T21:47:59.135Z,99106.92
2023-01-29T21:53:01.001Z,99103.45
2023-01-29T21:58:02.731Z,99097.91
2023-01-29T22:03:05.327Z,99088.80
2023-01-29T22:08:07.106Z,99087.17
2023-01-29T22:13:13.649Z,99083.60
2023-01-29T22:18:15.638Z,99070.63
2023-01-29T22:23:17.323Z,99057.54
2023-01-29T22:28:19.266Z,99057.38
2023-01-29T22:33:20.964Z,99046.09
2023-01-29T22:38:23.955Z,99040.77
2023-01-29T22:43:29.388Z,99026.94
2023-01-29T22:48:31.543Z,99021.89
2023-01-29T22:53:33.318Z,99024.10
2023-01-29T22:58:35.167Z,99020.94
2023-01-29T23:03:36.929Z,99009.98
2023-01-29T23:08:38.794Z,99000.48
2023-01-29T23:13:41.610Z,98991.58
2023-01-29T23:18:44.229Z,98984.98
2023-01-29T23:23:46.256Z,98972.42
2023-01-29T23:28:48.081Z,98963.11
2023-01-29T23:33:50.520Z,98949.65
2023-01-29T23:38:52.285Z,98934.23
2023-01-29T23:43:54.096Z,98915.85
2023-01-29T23:48:56.142Z,98909.52
2023-01-29T23:53:57.997Z,98900.48
2023-01-29T23:58:59.910Z,98896.09
